sensor_id;sensor_type;location;lat;lon;timestamp;temperature;humidity
31731;DHT22;18310;55.586;12.286;2022-11-21T00:02:20;3.10;64.00
31731;DHT22;18310;55.586;12.286;2022-11-21T00:05:23;3.20;64.30
31731;DHT22;18310;55.586;12.286;2022-11-21T00:08:27;2.80;64.10
31731;DHT22;18310;55.586;12.286;2022-11-21T00:11:33;3.20;64.20
31731;DHT22;18310;55.586;12.286;2022-11-21T00:14:38;3.30;64.40
31731;DHT22;18310;55.586;12.286;2022-11-21T00:17:41;3.30;64.60
31731;DHT22;18310;55.586;12.286;2022-11-21T00:20:45;3.30;64.70
31731;DHT22;18310;55.586;12.286;2022-11-21T00:23:51;3.70;65.50
31731;DHT22;18310;55.586;12.286;2022-11-21T00:26:56;3.40;64.60
31731;DHT22;18310;55.586;12.286;2022-11-21T00:29:59;3.40;64.70
31731;DHT22;18310;55.586;12.286;2022-11-21T00:33:03;3.50;64.80
31731;DHT22;18310;55.586;12.286;2022-11-21T00:36:08;3.50;64.70
31731;DHT22;18310;55.586;12.286;2022-11-21T00:39:12;3.60;65.00
31731;DHT22;18310;55.586;12.286;2022-11-21T00:42:17;3.70;64.90
31731;DHT22;18310;55.586;12.286;2022-11-21T00:45:20;3.70;64.80
31731;DHT22;18310;55.586;12.286;2022-11-21T00:48:25;3.70;64.70
31731;DHT22;18310;55.586;12.286;2022-11-21T00:51:29;3.70;64.60
31731;DHT22;18310;55.586;12.286;2022-11-21T00:54:32;3.80;64.70
31731;DHT22;18310;55.586;12.286;2022-11-21T00:57:37;3.80;64.50
31731;DHT22;18310;55.586;12.286;2022-11-21T01:00:41;3.80;64.50
31731;DHT22;18310;55.586;12.286;2022-11-21T01:03:44;3.80;64.40
31731;DHT22;18310;55.586;12.286;2022-11-21T01:06:48;3.80;64.50
31731;DHT22;18310;55.586;12.286;2022-11-21T01:09:52;3.80;64.50
31731;DHT22;18310;55.586;12.286;2022-11-21T01:12:57;3.70;64.50
31731;DHT22;18310;55.586;12.286;2022-11-21T01:16:04;3.80;64.70
31731;DHT22;18310;55.586;12.286;2022-11-21T01:19:08;4.70;65.10
31731;DHT22;18310;55.586;12.286;2022-11-21T01:22:11;3.70;64.40
31731;DHT22;18310;55.586;12.286;2022-11-21T01:25:15;3.70;64.60
31731;DHT22;18310;55.586;12.286;2022-11-21T01:28:21;3.70;65.10
31731;DHT22;18310;55.586;12.286;2022-11-21T01:31:26;3.70;65.30
31731;DHT22;18310;55.586;12.286;2022-11-21T01:34:30;3.70;65.20
31731;DHT22;18310;55.586;12.286;2022-11-21T01:37:33;3.70;65.20
31731;DHT22;18310;55.586;12.286;2022-11-21T01:40:37;3.60;65.40
31731;DHT22;18310;55.586;12.286;2022-11-21T01:43:43;3.70;65.50
31731;DHT22;18310;55.586;12.286;2022-11-21T01:46:49;3.20;65.30
31731;DHT22;18310;55.586;12.286;2022-11-21T01:49:54;3.80;65.60
31731;DHT22;18310;55.586;12.286;2022-11-21T01:52:57;3.80;65.70
31731;DHT22;18310;55.586;12.286;2022-11-21T01:56:01;3.80;65.90
31731;DHT22;18310;55.586;12.286;2022-11-21T01:59:09;3.80;66.90
31731;DHT22;18310;55.586;12.286;2022-11-21T02:02:21;3.90;66.20
31731;DHT22;18310;55.586;12.286;2022-11-21T02:05:28;3.90;66.30
31731;DHT22;18310;55.586;12.286;2022-11-21T02:08:34;3.90;66.30
31731;DHT22;18310;55.586;12.286;2022-11-21T02:11:40;4.00;66.40
31731;DHT22;18310;55.586;12.286;2022-11-21T02:14:48;4.00;66.30
31731;DHT22;18310;55.586;12.286;2022-11-21T02:17:54;3.20;65.90
31731;DHT22;18310;55.586;12.286;2022-11-21T02:21:02;4.00;66.40
31731;DHT22;18310;55.586;12.286;2022-11-21T02:24:13;4.00;66.50
31731;DHT22;18310;55.586;12.286;2022-11-21T02:27:24;4.00;67.10
31731;DHT22;18310;55.586;12.286;2022-11-21T02:30:29;4.00;66.20
31731;DHT22;18310;55.586;12.286;2022-11-21T02:33:36;4.00;66.50
31731;DHT22;18310;55.586;12.286;2022-11-21T02:36:41;4.00;66.80
31731;DHT22;18310;55.586;12.286;2022-11-21T02:39:49;4.00;66.90
31731;DHT22;18310;55.586;12.286;2022-11-21T02:42:59;4.00;67.00
31731;DHT22;18310;55.586;12.286;2022-11-21T02:46:08;4.00;67.80
31731;DHT22;18310;55.586;12.286;2022-11-21T02:49:11;4.00;67.50
31731;DHT22;18310;55.586;12.286;2022-11-21T02:52:15;4.10;67.80
31731;DHT22;18310;55.586;12.286;2022-11-21T02:55:19;4.10;68.00
31731;DHT22;18310;55.586;12.286;2022-11-21T02:58:25;4.10;68.10
31731;DHT22;18310;55.586;12.286;2022-11-21T03:01:28;5.20;68.70
31731;DHT22;18310;55.586;12.286;2022-11-21T03:04:32;4.20;68.00
31731;DHT22;18310;55.586;12.286;2022-11-21T03:07:36;4.20;69.20
31731;DHT22;18310;55.586;12.286;2022-11-21T03:10:39;4.20;68.00
31731;DHT22;18310;55.586;12.286;2022-11-21T03:13:44;4.20;68.30
31731;DHT22;18310;55.586;12.286;2022-11-21T03:16:48;4.00;68.10
31731;DHT22;18310;55.586;12.286;2022-11-21T03:19:51;4.30;68.20
31731;DHT22;18310;55.586;12.286;2022-11-21T03:22:54;4.30;68.40
31731;DHT22;18310;55.586;12.286;2022-11-21T03:25:58;4.30;68.30
31731;DHT22;18310;55.586;12.286;2022-11-21T03:29:04;4.30;68.20
31731;DHT22;18310;55.586;12.286;2022-11-21T03:32:08;4.30;68.30
31731;DHT22;18310;55.586;12.286;2022-11-21T03:35:11;4.30;68.10
31731;DHT22;18310;55.586;12.286;2022-11-21T03:38:15;4.30;68.20
31731;DHT22;18310;55.586;12.286;2022-11-21T03:41:19;4.30;67.80
31731;DHT22;18310;55.586;12.286;2022-11-21T03:44:33;4.30;68.40
31731;DHT22;18310;55.586;12.286;2022-11-21T03:47:36;4.90;69.00
31731;DHT22;18310;55.586;12.286;2022-11-21T03:50:41;4.30;68.80
31731;DHT22;18310;55.586;12.286;2022-11-21T03:53:46;4.40;69.00
31731;DHT22;18310;55.586;12.286;2022-11-21T03:56:50;4.40;68.60
31731;DHT22;18310;55.586;12.286;2022-11-21T03:59:55;4.40;68.50
31731;DHT22;18310;55.586;12.286;2022-11-21T04:03:00;4.50;68.60
31731;DHT22;18310;55.586;12.286;2022-11-21T04:06:03;4.40;68.50
31731;DHT22;18310;55.586;12.286;2022-11-21T04:09:06;5.20;69.00
31731;DHT22;18310;55.586;12.286;2022-11-21T04:12:10;4.40;68.60
31731;DHT22;18310;55.586;12.286;2022-11-21T04:15:15;4.40;68.70
31731;DHT22;18310;55.586;12.286;2022-11-21T04:18:18;4.40;68.60
31731;DHT22;18310;55.586;12.286;2022-11-21T04:21:24;4.40;68.60
31731;DHT22;18310;55.586;12.286;2022-11-21T04:24:28;4.40;68.70
31731;DHT22;18310;55.586;12.286;2022-11-21T04:27:32;4.40;68.70
31731;DHT22;18310;55.586;12.286;2022-11-21T04:30:37;3.90;68.60
31731;DHT22;18310;55.586;12.286;2022-11-21T04:33:40;4.40;69.00
31731;DHT22;18310;55.586;12.286;2022-11-21T04:36:44;4.70;69.10
31731;DHT22;18310;55.586;12.286;2022-11-21T04:39:47;4.50;68.80
31731;DHT22;18310;55.586;12.286;2022-11-21T04:42:50;4.50;68.90
31731;DHT22;18310;55.586;12.286;2022-11-21T04:45:55;4.50;68.90
31731;DHT22;18310;55.586;12.286;2022-11-21T04:48:59;4.50;69.00
31731;DHT22;18310;55.586;12.286;2022-11-21T04:52:02;4.50;68.80
31731;DHT22;18310;55.586;12.286;2022-11-21T04:55:06;4.50;68.90
31731;DHT22;18310;55.586;12.286;2022-11-21T04:58:10;4.50;69.90
31731;DHT22;18310;55.586;12.286;2022-11-21T05:01:15;4.50;68.90
31731;DHT22;18310;55.586;12.286;2022-11-21T05:04:19;4.50;69.00
31731;DHT22;18310;55.586;12.286;2022-11-21T05:07:26;4.50;69.00
31731;DHT22;18310;55.586;12.286;2022-11-21T05:10:29;5.40;69.60
31731;DHT22;18310;55.586;12.286;2022-11-21T05:13:53;4.60;69.20
31731;DHT22;18310;55.586;12.286;2022-11-21T05:16:57;4.60;69.20
31731;DHT22;18310;55.586;12.286;2022-11-21T05:20:00;4.60;69.30
31731;DHT22;18310;55.586;12.286;2022-11-21T05:23:04;4.60;69.30
31731;DHT22;18310;55.586;12.286;2022-11-21T05:26:07;4.70;69.40
31731;DHT22;18310;55.586;12.286;2022-11-21T05:29:11;4.70;69.40
31731;DHT22;18310;55.586;12.286;2022-11-21T05:32:16;4.40;69.20
31731;DHT22;18310;55.586;12.286;2022-11-21T05:35:20;4.80;69.50
31731;DHT22;18310;55.586;12.286;2022-11-21T05:38:24;4.80;69.30
31731;DHT22;18310;55.586;12.286;2022-11-21T05:41:27;4.80;69.30
31731;DHT22;18310;55.586;12.286;2022-11-21T05:44:31;4.80;69.60
31731;DHT22;18310;55.586;12.286;2022-11-21T05:47:34;4.80;69.40
31731;DHT22;18310;55.586;12.286;2022-11-21T05:50:39;4.60;69.60
31731;DHT22;18310;55.586;12.286;2022-11-21T05:53:44;4.90;69.50
31731;DHT22;18310;55.586;12.286;2022-11-21T05:56:48;4.90;69.70
31731;DHT22;18310;55.586;12.286;2022-11-21T05:59:52;4.90;69.50
31731;DHT22;18310;55.586;12.286;2022-11-21T06:02:57;4.90;69.60
31731;DHT22;18310;55.586;12.286;2022-11-21T06:06:18;4.90;69.80
31731;DHT22;18310;55.586;12.286;2022-11-21T06:09:25;4.30;69.50
31731;DHT22;18310;55.586;12.286;2022-11-21T06:12:29;4.90;69.70
31731;DHT22;18310;55.586;12.286;2022-11-21T06:15:33;5.00;69.60
31731;DHT22;18310;55.586;12.286;2022-11-21T06:18:39;5.00;69.50
31731;DHT22;18310;55.586;12.286;2022-11-21T06:21:44;5.00;69.40
31731;DHT22;18310;55.586;12.286;2022-11-21T06:24:49;5.00;69.20
31731;DHT22;18310;55.586;12.286;2022-11-21T06:27:54;4.90;69.30
31731;DHT22;18310;55.586;12.286;2022-11-21T06:31:02;5.50;69.60
31731;DHT22;18310;55.586;12.286;2022-11-21T06:34:07;4.90;69.40
31731;DHT22;18310;55.586;12.286;2022-11-21T06:37:12;4.80;69.40
31731;DHT22;18310;55.586;12.286;2022-11-21T06:40:17;4.90;69.50
31731;DHT22;18310;55.586;12.286;2022-11-21T06:43:26;5.00;69.40
31731;DHT22;18310;55.586;12.286;2022-11-21T06:46:31;5.00;69.20
31731;DHT22;18310;55.586;12.286;2022-11-21T06:49:38;5.00;69.10
31731;DHT22;18310;55.586;12.286;2022-11-21T06:52:43;5.70;69.60
31731;DHT22;18310;55.586;12.286;2022-11-21T06:55:47;4.90;69.10
31731;DHT22;18310;55.586;12.286;2022-11-21T06:58:50;4.60;69.00
31731;DHT22;18310;55.586;12.286;2022-11-21T07:01:54;4.90;69.30
31731;DHT22;18310;55.586;12.286;2022-11-21T07:04:59;4.70;69.40
31731;DHT22;18310;55.586;12.286;2022-11-21T07:08:04;4.90;69.70
31731;DHT22;18310;55.586;12.286;2022-11-21T07:11:14;4.60;69.40
31731;DHT22;18310;55.586;12.286;2022-11-21T07:14:27;5.00;69.50
31731;DHT22;18310;55.586;12.286;2022-11-21T07:17:31;5.00;69.40
31731;DHT22;18310;55.586;12.286;2022-11-21T07:20:36;4.90;69.20
31731;DHT22;18310;55.586;12.286;2022-11-21T07:23:39;4.90;69.20
31731;DHT22;18310;55.586;12.286;2022-11-21T07:26:43;4.90;69.30
31731;DHT22;18310;55.586;12.286;2022-11-21T07:29:46;4.90;69.40
31731;DHT22;18310;55.586;12.286;2022-11-21T07:32:54;4.00;69.00
31731;DHT22;18310;55.586;12.286;2022-11-21T07:35:59;4.80;69.60
31731;DHT22;18310;55.586;12.286;2022-11-21T07:39:03;4.80;69.60
31731;DHT22;18310;55.586;12.286;2022-11-21T07:42:07;4.90;69.80
31731;DHT22;18310;55.586;12.286;2022-11-21T07:45:11;4.90;69.90
31731;DHT22;18310;55.586;12.286;2022-11-21T07:48:15;4.90;70.80
31731;DHT22;18310;55.586;12.286;2022-11-21T07:51:20;5.00;69.90
31731;DHT22;18310;55.586;12.286;2022-11-21T07:54:23;4.90;69.80
31731;DHT22;18310;55.586;12.286;2022-11-21T07:57:27;4.70;69.60
31731;DHT22;18310;55.586;12.286;2022-11-21T08:00:32;5.00;69.80
31731;DHT22;18310;55.586;12.286;2022-11-21T08:03:37;5.00;69.80
31731;DHT22;18310;55.586;12.286;2022-11-21T08:06:43;5.00;69.90
31731;DHT22;18310;55.586;12.286;2022-11-21T08:09:46;5.60;71.70
31731;DHT22;18310;55.586;12.286;2022-11-21T08:12:49;5.80;70.50
31731;DHT22;18310;55.586;12.286;2022-11-21T08:15:53;5.10;70.30
31731;DHT22;18310;55.586;12.286;2022-11-21T08:18:57;5.10;70.20
31731;DHT22;18310;55.586;12.286;2022-11-21T08:22:02;4.00;69.40
31731;DHT22;18310;55.586;12.286;2022-11-21T08:25:07;5.20;70.10
31731;DHT22;18310;55.586;12.286;2022-11-21T08:28:11;5.20;70.00
31731;DHT22;18310;55.586;12.286;2022-11-21T08:31:15;5.00;69.70
31731;DHT22;18310;55.586;12.286;2022-11-21T08:34:18;5.30;69.80
31731;DHT22;18310;55.586;12.286;2022-11-21T08:37:23;5.30;69.80
31731;DHT22;18310;55.586;12.286;2022-11-21T08:40:28;5.30;69.90
31731;DHT22;18310;55.586;12.286;2022-11-21T08:43:33;5.10;69.90
31731;DHT22;18310;55.586;12.286;2022-11-21T08:46:38;5.40;70.20
31731;DHT22;18310;55.586;12.286;2022-11-21T08:49:43;6.40;70.60
31731;DHT22;18310;55.586;12.286;2022-11-21T08:52:47;5.40;70.00
31731;DHT22;18310;55.586;12.286;2022-11-21T08:55:52;5.50;69.90
31731;DHT22;18310;55.586;12.286;2022-11-21T08:58:55;5.50;69.70
31731;DHT22;18310;55.586;12.286;2022-11-21T09:01:59;5.50;69.70
31731;DHT22;18310;55.586;12.286;2022-11-21T09:05:02;6.40;70.20
31731;DHT22;18310;55.586;12.286;2022-11-21T09:08:07;5.60;69.60
31731;DHT22;18310;55.586;12.286;2022-11-21T09:11:11;5.60;69.50
31731;DHT22;18310;55.586;12.286;2022-11-21T09:14:14;5.60;69.40
31731;DHT22;18310;55.586;12.286;2022-11-21T09:17:36;5.60;69.40
31731;DHT22;18310;55.586;12.286;2022-11-21T09:20:57;5.70;69.40
31731;DHT22;18310;55.586;12.286;2022-11-21T09:24:03;5.70;69.40
31731;DHT22;18310;55.586;12.286;2022-11-21T09:27:06;5.70;69.30
31731;DHT22;18310;55.586;12.286;2022-11-21T09:30:10;5.70;69.30
31731;DHT22;18310;55.586;12.286;2022-11-21T09:33:15;5.70;69.40
31731;DHT22;18310;55.586;12.286;2022-11-21T09:36:18;5.70;69.40
31731;DHT22;18310;55.586;12.286;2022-11-21T09:39:23;5.80;69.80
31731;DHT22;18310;55.586;12.286;2022-11-21T09:42:46;5.80;69.20
31731;DHT22;18310;55.586;12.286;2022-11-21T09:46:06;6.30;69.70
31731;DHT22;18310;55.586;12.286;2022-11-21T09:49:13;5.80;69.10
31731;DHT22;18310;55.586;12.286;2022-11-21T09:52:21;6.40;69.30
31731;DHT22;18310;55.586;12.286;2022-11-21T09:55:39;5.80;69.70
31731;DHT22;18310;55.586;12.286;2022-11-21T09:58:53;5.80;69.20
31731;DHT22;18310;55.586;12.286;2022-11-21T10:02:13;5.90;69.40
31731;DHT22;18310;55.586;12.286;2022-11-21T10:05:25;5.90;69.60
31731;DHT22;18310;55.586;12.286;2022-11-21T10:08:44;6.00;69.60
31731;DHT22;18310;55.586;12.286;2022-11-21T10:11:58;6.00;69.50
31731;DHT22;18310;55.586;12.286;2022-11-21T10:15:43;7.30;70.10
31731;DHT22;18310;55.586;12.286;2022-11-21T10:23:02;6.10;69.40
31731;DHT22;18310;55.586;12.286;2022-11-21T10:26:21;6.20;69.50
31731;DHT22;18310;55.586;12.286;2022-11-21T10:29:35;6.30;69.40
31731;DHT22;18310;55.586;12.286;2022-11-21T10:32:44;6.40;69.20
31731;DHT22;18310;55.586;12.286;2022-11-21T10:35:52;6.40;69.20
31731;DHT22;18310;55.586;12.286;2022-11-21T10:39:00;6.40;69.00
31731;DHT22;18310;55.586;12.286;2022-11-21T10:42:16;6.40;69.10
31731;DHT22;18310;55.586;12.286;2022-11-21T10:45:31;6.40;69.20
31731;DHT22;18310;55.586;12.286;2022-11-21T10:48:33;6.50;69.00
31731;DHT22;18310;55.586;12.286;2022-11-21T10:51:43;6.50;68.90
31731;DHT22;18310;55.586;12.286;2022-11-21T10:55:08;6.50;68.90
31731;DHT22;18310;55.586;12.286;2022-11-21T10:58:17;6.50;68.90
31731;DHT22;18310;55.586;12.286;2022-11-21T11:01:25;6.50;68.40
31731;DHT22;18310;55.586;12.286;2022-11-21T11:04:30;6.50;68.30
31731;DHT22;18310;55.586;12.286;2022-11-21T11:08:03;6.40;68.40
31731;DHT22;18310;55.586;12.286;2022-11-21T11:11:12;6.40;69.20
31731;DHT22;18310;55.586;12.286;2022-11-21T11:14:29;6.40;68.60
31731;DHT22;18310;55.586;12.286;2022-11-21T11:17:36;6.40;68.60
31731;DHT22;18310;55.586;12.286;2022-11-21T11:20:41;6.40;68.40
31731;DHT22;18310;55.586;12.286;2022-11-21T11:23:47;6.40;68.30
31731;DHT22;18310;55.586;12.286;2022-11-21T11:27:00;6.30;68.30
31731;DHT22;18310;55.586;12.286;2022-11-21T11:30:06;6.30;68.30
31731;DHT22;18310;55.586;12.286;2022-11-21T11:33:36;6.30;68.00
31731;DHT22;18310;55.586;12.286;2022-11-21T11:36:52;6.30;68.60
31731;DHT22;18310;55.586;12.286;2022-11-21T11:40:04;6.30;68.10
31731;DHT22;18310;55.586;12.286;2022-11-21T11:43:28;6.20;68.00
31731;DHT22;18310;55.586;12.286;2022-11-21T11:47:03;6.10;67.90
31731;DHT22;18310;55.586;12.286;2022-11-21T11:50:36;6.10;67.90
31731;DHT22;18310;55.586;12.286;2022-11-21T11:53:45;6.00;68.10
31731;DHT22;18310;55.586;12.286;2022-11-21T11:57:03;6.00;68.20
31731;DHT22;18310;55.586;12.286;2022-11-21T12:00:24;5.90;68.40
31731;DHT22;18310;55.586;12.286;2022-11-21T12:03:39;5.90;68.80
31731;DHT22;18310;55.586;12.286;2022-11-21T12:06:51;5.90;68.80
31731;DHT22;18310;55.586;12.286;2022-11-21T12:10:24;5.90;68.90
31731;DHT22;18310;55.586;12.286;2022-11-21T12:13:33;6.70;69.30
31731;DHT22;18310;55.586;12.286;2022-11-21T12:16:39;6.00;68.70
31731;DHT22;18310;55.586;12.286;2022-11-21T12:19:43;6.00;68.60
31731;DHT22;18310;55.586;12.286;2022-11-21T12:22:51;5.90;69.10
31731;DHT22;18310;55.586;12.286;2022-11-21T12:26:05;6.00;68.70
31731;DHT22;18310;55.586;12.286;2022-11-21T12:29:31;6.70;69.10
31731;DHT22;18310;55.586;12.286;2022-11-21T12:32:53;6.10;68.80
31731;DHT22;18310;55.586;12.286;2022-11-21T12:36:13;6.10;68.60
31731;DHT22;18310;55.586;12.286;2022-11-21T12:39:42;6.10;68.70
31731;DHT22;18310;55.586;12.286;2022-11-21T12:43:05;6.20;69.20
31731;DHT22;18310;55.586;12.286;2022-11-21T12:46:26;6.20;69.50
31731;DHT22;18310;55.586;12.286;2022-11-21T12:49:38;6.30;69.60
31731;DHT22;18310;55.586;12.286;2022-11-21T12:53:14;6.60;69.20
31731;DHT22;18310;55.586;12.286;2022-11-21T12:56:50;6.60;69.30
31731;DHT22;18310;55.586;12.286;2022-11-21T13:00:14;6.60;68.50
31731;DHT22;18310;55.586;12.286;2022-11-21T13:03:40;7.50;68.90
31731;DHT22;18310;55.586;12.286;2022-11-21T13:06:50;6.70;68.40
31731;DHT22;18310;55.586;12.286;2022-11-21T13:09:59;6.70;68.10
31731;DHT22;18310;55.586;12.286;2022-11-21T13:13:21;6.70;67.70
31731;DHT22;18310;55.586;12.286;2022-11-21T13:16:30;6.70;67.30
31731;DHT22;18310;55.586;12.286;2022-11-21T13:19:44;6.60;67.10
31731;DHT22;18310;55.586;12.286;2022-11-21T13:22:58;6.50;67.00
31731;DHT22;18310;55.586;12.286;2022-11-21T13:30:26;6.40;67.40
31731;DHT22;18310;55.586;12.286;2022-11-21T13:33:47;6.30;67.40
31731;DHT22;18310;55.586;12.286;2022-11-21T13:36:52;6.20;67.30
31731;DHT22;18310;55.586;12.286;2022-11-21T13:40:33;6.20;67.00
31731;DHT22;18310;55.586;12.286;2022-11-21T13:43:38;6.10;67.50
31731;DHT22;18310;55.586;12.286;2022-11-21T13:46:58;6.10;67.10
31731;DHT22;18310;55.586;12.286;2022-11-21T13:50:07;6.00;67.60
31731;DHT22;18310;55.586;12.286;2022-11-21T13:53:39;5.90;67.80
31731;DHT22;18310;55.586;12.286;2022-11-21T13:57:22;5.90;68.00
31731;DHT22;18310;55.586;12.286;2022-11-21T14:01:07;5.90;68.10
31731;DHT22;18310;55.586;12.286;2022-11-21T14:08:17;5.90;67.90
31731;DHT22;18310;55.586;12.286;2022-11-21T14:11:30;5.80;67.60
31731;DHT22;18310;55.586;12.286;2022-11-21T14:14:40;5.80;67.60
31731;DHT22;18310;55.586;12.286;2022-11-21T14:17:49;5.70;67.50
31731;DHT22;18310;55.586;12.286;2022-11-21T14:20:57;5.40;67.50
31731;DHT22;18310;55.586;12.286;2022-11-21T14:24:10;6.50;68.20
31731;DHT22;18310;55.586;12.286;2022-11-21T14:27:25;5.60;67.80
31731;DHT22;18310;55.586;12.286;2022-11-21T14:30:33;5.60;68.00
31731;DHT22;18310;55.586;12.286;2022-11-21T14:33:39;5.50;67.90
31731;DHT22;18310;55.586;12.286;2022-11-21T14:36:45;5.50;68.00
31731;DHT22;18310;55.586;12.286;2022-11-21T14:39:50;6.60;68.80
31731;DHT22;18310;55.586;12.286;2022-11-21T14:42:58;5.40;68.10
31731;DHT22;18310;55.586;12.286;2022-11-21T14:46:03;5.40;67.90
31731;DHT22;18310;55.586;12.286;2022-11-21T14:49:20;5.40;67.70
31731;DHT22;18310;55.586;12.286;2022-11-21T14:52:32;5.30;68.50
31731;DHT22;18310;55.586;12.286;2022-11-21T14:55:36;6.10;68.70
31731;DHT22;18310;55.586;12.286;2022-11-21T14:58:40;5.30;68.30
31731;DHT22;18310;55.586;12.286;2022-11-21T15:01:54;5.30;68.20
31731;DHT22;18310;55.586;12.286;2022-11-21T15:05:03;5.20;68.20
31731;DHT22;18310;55.586;12.286;2022-11-21T15:08:09;5.20;67.90
31731;DHT22;18310;55.586;12.286;2022-11-21T15:11:37;5.10;68.10
31731;DHT22;18310;55.586;12.286;2022-11-21T15:14:47;4.90;68.40
31731;DHT22;18310;55.586;12.286;2022-11-21T15:17:56;5.00;68.10
31731;DHT22;18310;55.586;12.286;2022-11-21T15:21:22;4.90;68.00
31731;DHT22;18310;55.586;12.286;2022-11-21T15:24:33;4.90;68.10
31731;DHT22;18310;55.586;12.286;2022-11-21T15:27:41;4.20;67.70
31731;DHT22;18310;55.586;12.286;2022-11-21T15:30:46;4.80;67.70
31731;DHT22;18310;55.586;12.286;2022-11-21T15:33:57;4.70;67.70
31731;DHT22;18310;55.586;12.286;2022-11-21T15:37:22;4.60;67.70
31731;DHT22;18310;55.586;12.286;2022-11-21T15:40:27;3.70;67.20
31731;DHT22;18310;55.586;12.286;2022-11-21T15:43:40;4.40;67.80
31731;DHT22;18310;55.586;12.286;2022-11-21T15:46:45;3.60;67.70
31731;DHT22;18310;55.586;12.286;2022-11-21T15:49:49;4.30;68.70
31731;DHT22;18310;55.586;12.286;2022-11-21T15:52:53;4.20;67.80
31731;DHT22;18310;55.586;12.286;2022-11-21T15:55:58;4.10;67.90
31731;DHT22;18310;55.586;12.286;2022-11-21T15:59:02;4.00;68.10
31731;DHT22;18310;55.586;12.286;2022-11-21T16:02:10;3.90;68.10
31731;DHT22;18310;55.586;12.286;2022-11-21T16:05:14;3.80;68.30
31731;DHT22;18310;55.586;12.286;2022-11-21T16:08:18;3.80;68.90
31731;DHT22;18310;55.586;12.286;2022-11-21T16:11:26;3.70;68.50
31731;DHT22;18310;55.586;12.286;2022-11-21T16:14:31;4.60;69.10
31731;DHT22;18310;55.586;12.286;2022-11-21T16:17:35;3.60;68.50
31731;DHT22;18310;55.586;12.286;2022-11-21T16:20:40;3.60;68.60
31731;DHT22;18310;55.586;12.286;2022-11-21T16:23:43;3.60;68.70
31731;DHT22;18310;55.586;12.286;2022-11-21T16:26:48;3.50;68.80
31731;DHT22;18310;55.586;12.286;2022-11-21T16:29:55;3.40;68.80
31731;DHT22;18310;55.586;12.286;2022-11-21T16:33:01;3.40;68.80
31731;DHT22;18310;55.586;12.286;2022-11-21T16:36:05;3.40;69.00
31731;DHT22;18310;55.586;12.286;2022-11-21T16:39:09;3.30;69.00
31731;DHT22;18310;55.586;12.286;2022-11-21T16:42:20;3.30;69.10
31731;DHT22;18310;55.586;12.286;2022-11-21T16:45:24;3.10;69.20
31731;DHT22;18310;55.586;12.286;2022-11-21T16:48:27;4.30;70.00
31731;DHT22;18310;55.586;12.286;2022-11-21T16:51:30;3.80;69.80
31731;DHT22;18310;55.586;12.286;2022-11-21T16:54:34;3.30;69.60
31731;DHT22;18310;55.586;12.286;2022-11-21T16:57:39;3.30;69.60
31731;DHT22;18310;55.586;12.286;2022-11-21T17:00:43;3.20;69.70
31731;DHT22;18310;55.586;12.286;2022-11-21T17:03:48;3.30;69.70
31731;DHT22;18310;55.586;12.286;2022-11-21T17:06:52;3.30;69.70
31731;DHT22;18310;55.586;12.286;2022-11-21T17:09:55;4.10;70.10
31731;DHT22;18310;55.586;12.286;2022-11-21T17:13:00;3.20;69.90
31731;DHT22;18310;55.586;12.286;2022-11-21T17:16:05;3.30;70.00
31731;DHT22;18310;55.586;12.286;2022-11-21T17:19:10;3.20;69.70
31731;DHT22;18310;55.586;12.286;2022-11-21T17:22:15;3.20;69.60
31731;DHT22;18310;55.586;12.286;2022-11-21T17:25:25;3.20;70.10
31731;DHT22;18310;55.586;12.286;2022-11-21T17:28:30;3.20;69.50
31731;DHT22;18310;55.586;12.286;2022-11-21T17:31:34;3.20;69.50
31731;DHT22;18310;55.586;12.286;2022-11-21T17:34:38;3.20;69.50
31731;DHT22;18310;55.586;12.286;2022-11-21T17:37:42;3.20;69.80
31731;DHT22;18310;55.586;12.286;2022-11-21T17:40:46;3.10;69.90
31731;DHT22;18310;55.586;12.286;2022-11-21T17:43:53;4.30;70.50
31731;DHT22;18310;55.586;12.286;2022-11-21T17:46:58;3.10;69.80
31731;DHT22;18310;55.586;12.286;2022-11-21T17:50:04;3.10;69.70
31731;DHT22;18310;55.586;12.286;2022-11-21T17:53:08;3.10;69.70
31731;DHT22;18310;55.586;12.286;2022-11-21T17:56:13;2.70;69.50
31731;DHT22;18310;55.586;12.286;2022-11-21T17:59:20;3.10;69.80
31731;DHT22;18310;55.586;12.286;2022-11-21T18:02:24;3.30;70.10
31731;DHT22;18310;55.586;12.286;2022-11-21T18:05:28;3.10;70.00
31731;DHT22;18310;55.586;12.286;2022-11-21T18:08:33;3.10;70.30
31731;DHT22;18310;55.586;12.286;2022-11-21T18:11:38;3.10;70.30
31731;DHT22;18310;55.586;12.286;2022-11-21T18:14:44;3.20;70.40
31731;DHT22;18310;55.586;12.286;2022-11-21T18:17:47;4.30;71.10
31731;DHT22;18310;55.586;12.286;2022-11-21T18:20:51;2.60;70.10
31731;DHT22;18310;55.586;12.286;2022-11-21T18:23:55;4.00;70.90
31731;DHT22;18310;55.586;12.286;2022-11-21T18:27:00;3.40;70.70
31731;DHT22;18310;55.586;12.286;2022-11-21T18:30:06;2.40;70.10
31731;DHT22;18310;55.586;12.286;2022-11-21T18:33:10;3.50;70.80
31731;DHT22;18310;55.586;12.286;2022-11-21T18:36:20;3.50;70.70
31731;DHT22;18310;55.586;12.286;2022-11-21T18:39:24;3.60;70.70
31731;DHT22;18310;55.586;12.286;2022-11-21T18:42:30;3.70;70.70
31731;DHT22;18310;55.586;12.286;2022-11-21T18:45:37;3.20;70.40
31731;DHT22;18310;55.586;12.286;2022-11-21T18:48:41;4.60;71.20
31731;DHT22;18310;55.586;12.286;2022-11-21T18:52:05;3.80;70.70
31731;DHT22;18310;55.586;12.286;2022-11-21T18:55:08;3.90;70.60
31731;DHT22;18310;55.586;12.286;2022-11-21T18:58:12;4.00;70.60
31731;DHT22;18310;55.586;12.286;2022-11-21T19:01:18;4.10;71.10
31731;DHT22;18310;55.586;12.286;2022-11-21T19:04:23;4.10;70.20
31731;DHT22;18310;55.586;12.286;2022-11-21T19:07:29;4.20;70.40
31731;DHT22;18310;55.586;12.286;2022-11-21T19:10:34;4.30;70.40
31731;DHT22;18310;55.586;12.286;2022-11-21T19:13:44;3.80;70.20
31731;DHT22;18310;55.586;12.286;2022-11-21T19:16:49;4.40;70.10
31731;DHT22;18310;55.586;12.286;2022-11-21T19:19:53;4.50;70.20
31731;DHT22;18310;55.586;12.286;2022-11-21T19:22:56;4.50;70.20
31731;DHT22;18310;55.586;12.286;2022-11-21T19:26:00;4.50;70.20
31731;DHT22;18310;55.586;12.286;2022-11-21T19:29:05;4.60;70.30
31731;DHT22;18310;55.586;12.286;2022-11-21T19:32:10;4.70;70.40
31731;DHT22;18310;55.586;12.286;2022-11-21T19:35:15;4.00;70.00
31731;DHT22;18310;55.586;12.286;2022-11-21T19:38:18;4.80;70.60
31731;DHT22;18310;55.586;12.286;2022-11-21T19:41:23;5.10;70.80
31731;DHT22;18310;55.586;12.286;2022-11-21T19:44:27;4.90;70.80
31731;DHT22;18310;55.586;12.286;2022-11-21T19:47:33;5.00;70.80
31731;DHT22;18310;55.586;12.286;2022-11-21T19:50:37;5.00;70.90
31731;DHT22;18310;55.586;12.286;2022-11-21T19:53:50;5.10;71.00
31731;DHT22;18310;55.586;12.286;2022-11-21T19:56:53;5.10;71.00
31731;DHT22;18310;55.586;12.286;2022-11-21T19:59:57;5.20;71.70